Portada
METAR-TAF:

METAR-TAF

Aeropuertos :

Rurrenabaque, Bolivia

latitud: 14-28S, longitud: 067-34W, altitud: 204 m

Observación

El informe se hizo hace 1 hora y 0 minutos, a las 16:00 UTC
Viento calma
Temperatura 21°C
Humedad 88%
Presión 1020 hPa
Visibilidad 10 km o más
Escasas nubes a una altura de 1500 ft
Cielo nuboso a una altura de 2300 ft
Cielo cubierto a una altura de 7000 ft

METAR: SLRQ 151600Z 00000KT 9999 FEW015 BKN023 OVC070 21/19 Q1020

Hora: 13:00 (17:00 UTC)


TAF: falta

Observaciones y pronósticos meteorológicos de más de 4000 aeropuertos (mensajes METAR y TAF).

Los puntos amarillos y rojos representan las estaciones disponibles.

Ponga el ratón en el punto deseado para ver el nombre de la estación.

Haga clic para ver las observaciones y los pronósticos meteorológicos.

Para cambiar el mapa : haga clic en los botones verdes con una cruz de color negro para hacer un zoom, en el botón verde con un guión para alejar o en las flechas verdes para mapas adyacentes.


METAR-TAF: